ADDS METAR Data INFO
IDs: Format: Raw Decoded Include TAF

Data at: 0749 UTC 23 Jul 2018

KMVE 230735Z AUTO 24004KT 7SM RA SCT032 BKN047 OVC060 20/19 A3008 RMK AO2 LTG DSNT S P0001
KMVE 230715Z AUTO 28005KT 7SM RA SCT039 OVC045 21/19 A3009 RMK AO2 P0001
KMVE 230655Z AUTO 17006KT 10SM -RA SCT011 BKN047 OVC085 21/19 A3008 RMK AO2 P0001
KMVE 230635Z AUTO 21004KT 5SM +RA SCT013 BKN047 OVC090 21/19 A3009 RMK AO2 P0001
KMVE 230615Z AUTO 00000KT 10SM SCT049 OVC080 22/19 A3009 RMK AO2 LTG DSNT W
KMVE 230555Z AUTO 18003KT 10SM OVC080 22/19 A3007 RMK AO2
KMVE 230535Z AUTO 19004KT 10SM OVC080 21/19 A3006 RMK AO2 LTG DSNT NW
KMVE 230515Z AUTO 16004KT 10SM BKN080 21/19 A3006 RMK AO2 LTG DSNT NW
KMVE 230455Z AUTO 17004KT 10SM CLR 21/19 A3006 RMK AO2
KMVE 230435Z AUTO 16004KT 10SM CLR 21/19 A3006 RMK AO2 LTG DSNT NW
KMVE 230415Z AUTO 17003KT 10SM CLR 21/19 A3006 RMK AO2
KMVE 230355Z AUTO 15005KT 10SM CLR 21/19 A3006 RMK AO2
KMVE 230335Z AUTO 15003KT 10SM CLR 21/18 A3007 RMK AO2
KMVE 230315Z AUTO 00000KT 10SM CLR 21/18 A3007 RMK AO2
KMVE 230255Z AUTO 14003KT 10SM CLR 21/18 A3007 RMK AO2
KMVE 230235Z AUTO 15003KT 10SM CLR 22/18 A3006 RMK AO2
KMVE 230215Z AUTO 00000KT 10SM CLR 22/19 A3005 RMK AO2
KMVE 230155Z AUTO 00000KT 10SM CLR 23/19 A3005 RMK AO2 LTG DSNT N
KMVE 230135Z AUTO 00000KT 10SM CLR 24/19 A3004 RMK AO2 LTG DSNT N
KMVE 230115Z AUTO 00000KT 10SM CLR 26/20 A3004 RMK AO2
KMVE 230055Z AUTO 15003KT 10SM CLR 26/19 A3004 RMK AO2
KMVE 230035Z AUTO 17003KT 10SM CLR 26/19 A3004 RMK AO2
KMVE 230015Z AUTO 17005KT 10SM CLR 27/19 A3004 RMK AO2
KMVE 222355Z AUTO 16005KT 10SM CLR 27/18 A3003 RMK AO2
KMVE 222335Z AUTO 15005KT 10SM CLR 27/18 A3003 RMK AO2
KMVE 222315Z AUTO 15005KT 10SM CLR 27/18 A3004 RMK AO2
KMVE 222255Z AUTO 00000KT 10SM CLR 28/18 A3004 RMK AO2
KMVE 222235Z AUTO 18005KT 10SM CLR 29/18 A3005 RMK AO2
KMVE 222215Z AUTO 18005KT 10SM CLR 29/19 A3005 RMK AO2 LTG DSNT NW
KMVE 222155Z AUTO 19004KT 10SM CLR 29/18 A3005 RMK AO2
KMVE 222135Z AUTO 19006KT 10SM CLR 29/18 A3006 RMK AO2
KMVE 222115Z AUTO 17003KT 10SM CLR 29/18 A3006 RMK AO2
KMVE 222055Z AUTO 17005KT 10SM CLR 28/18 A3006 RMK AO2
KMVE 222035Z AUTO 18004KT 10SM CLR 28/18 A3006 RMK AO2
KMVE 222015Z AUTO 19005KT 10SM CLR 28/18 A3006 RMK AO2
KMVE 221955Z AUTO 18005KT 10SM CLR 28/19 A3007 RMK AO2
KMVE 221935Z AUTO 16006KT 10SM CLR 27/18 A3006 RMK AO2
KMVE 221915Z AUTO 15008KT 10SM CLR 27/18 A3007 RMK AO2
KMVE 221855Z AUTO 17008KT 10SM CLR 27/19 A3007 RMK AO2
KMVE 221835Z AUTO 14006KT 10SM CLR 27/19 A3007 RMK AO2
KMVE 221815Z AUTO 14006KT 10SM SCT028 27/19 A3008 RMK AO2
KMVE 221755Z AUTO 16005KT 10SM CLR 26/19 A3008 RMK AO2
KMVE 221735Z AUTO 17006KT 10SM SCT025 26/18 A3008 RMK AO2
KMVE 221715Z AUTO 16007KT 10SM SCT025 26/18 A3009 RMK AO2
KMVE 221655Z AUTO 16005KT 10SM CLR 26/18 A3009 RMK AO2
KMVE 221635Z AUTO 14005KT 10SM CLR 25/18 A3008 RMK AO2
KMVE 221615Z AUTO 15005KT 10SM CLR 25/18 A3008 RMK AO2
KMVE 221555Z AUTO 17006KT 10SM CLR 24/18 A3008 RMK AO2
KMVE 221535Z AUTO 18006KT 10SM CLR 24/18 A3008 RMK AO2
KMVE 221515Z AUTO 18006KT 10SM CLR 23/17 A3007 RMK AO2
KMVE 221455Z AUTO 18007KT 10SM CLR 23/18 A3008 RMK AO2
KMVE 221435Z AUTO 16007KT 10SM CLR 23/18 A3008 RMK AO2
KMVE 221415Z AUTO 17006KT 10SM CLR 22/18 A3008 RMK AO2
KMVE 221355Z AUTO 19006KT 10SM CLR 22/18 A3008 RMK AO2
KMVE 221335Z AUTO 17006KT 10SM CLR 22/18 A3009 RMK AO2
KMVE 221315Z AUTO 16008KT 10SM CLR 21/18 A3009 RMK AO2
KMVE 221255Z AUTO 15008KT 10SM CLR 20/18 A3009 RMK AO2
KMVE 221235Z AUTO 14008KT 10SM CLR 20/17 A3010 RMK AO2
KMVE 221215Z AUTO 16007KT 10SM CLR 19/18 A3010 RMK AO2
KMVE 221155Z AUTO 14009KT 10SM CLR 19/18 A3009 RMK AO2
KMVE 221135Z AUTO 14007KT 10SM CLR 18/18 A3009 RMK AO2
KMVE 221115Z AUTO 14007KT 7SM CLR 17/17 A3009 RMK AO2
KMVE 221055Z AUTO 15004KT 10SM CLR 17/17 A3010 RMK AO2
KMVE 221035Z AUTO 00000KT 10SM CLR 17/16 A3010 RMK AO2
KMVE 221015Z AUTO 00000KT 10SM CLR 17/16 A3009 RMK AO2
KMVE 220955Z AUTO 10003KT 10SM CLR 17/16 A3009 RMK AO2
KMVE 220935Z AUTO 11003KT 10SM CLR 17/15 A3008 RMK AO2
KMVE 220915Z AUTO 00000KT 10SM CLR 17/14 A3009 RMK AO2
KMVE 220855Z AUTO 00000KT 10SM CLR 17/14 A3010 RMK AO2
KMVE 220835Z AUTO 00000KT 10SM CLR 17/15 A3009 RMK AO2
KMVE 220815Z AUTO 00000KT 10SM CLR 17/16 A3008 RMK AO2
KMVE 220755Z AUTO 00000KT 10SM CLR 18/16 A3008 RMK AO2
KMVE 220735Z AUTO 00000KT 10SM CLR 17/16 A3009 RMK AO2
KMVE 220715Z AUTO 00000KT 10SM CLR 18/16 A3009 RMK AO2
KMVE 220655Z AUTO 00000KT 10SM CLR 18/16 A3010 RMK AO2
KMVE 220635Z AUTO 00000KT 10SM CLR 18/16 A3011 RMK AO2
KMVE 220615Z AUTO 00000KT 10SM CLR 18/16 A3011 RMK AO2
KMVE 220555Z AUTO 00000KT 10SM CLR 18/16 A3011 RMK AO2
KMVE 220535Z AUTO 00000KT 10SM CLR 18/16 A3011 RMK AO2
KMVE 220515Z AUTO 00000KT 7SM CLR 18/16 A3010 RMK AO2 LTG DSNT S
KMVE 220455Z AUTO 00000KT 10SM CLR 18/16 A3011 RMK AO2
KMVE 220435Z AUTO 00000KT 10SM CLR 18/16 A3010 RMK AO2
KMVE 220415Z AUTO 00000KT 10SM CLR 19/17 A3009 RMK AO2
KMVE 220355Z AUTO 00000KT 10SM CLR 19/17 A3009 RMK AO2
KMVE 220335Z AUTO 10003KT 10SM CLR 19/17 A3008 RMK AO2
KMVE 220315Z AUTO 09003KT 10SM CLR 19/17 A3009 RMK AO2
KMVE 220255Z AUTO 00000KT 10SM CLR 20/17 A3009 RMK AO2
KMVE 220235Z AUTO 00000KT 10SM CLR 21/18 A3010 RMK AO2
KMVE 220215Z AUTO 00000KT 10SM CLR 22/18 A3008 RMK AO2
KMVE 220155Z AUTO 00000KT 10SM CLR 22/18 A3008 RMK AO2
KMVE 220135Z AUTO 09003KT 10SM CLR 24/18 A3008 RMK AO2
KMVE 220115Z AUTO 07003KT 10SM CLR 24/18 A3007 RMK AO2
KMVE 220055Z AUTO 00000KT 10SM SCT041 25/18 A3006 RMK AO2
KMVE 220035Z AUTO 09008KT 10SM SCT041 25/18 A3006 RMK AO2
KMVE 220015Z AUTO 09005KT 10SM SCT041 27/19 A3006 RMK AO2
KMVE 212355Z AUTO 08004KT 10SM CLR 26/18 A3006 RMK AO2
KMVE 212335Z AUTO 09004KT 10SM SCT036 27/18 A3007 RMK AO2
KMVE 212315Z AUTO 00000KT 10SM SCT036 27/17 A3007 RMK AO2
KMVE 212255Z AUTO 10003KT 10SM CLR 27/17 A3007 RMK AO2
KMVE 212235Z AUTO 08006KT 10SM CLR 28/18 A3007 RMK AO2
KMVE 212215Z AUTO 08005KT 10SM SCT034 SCT043 28/18 A3007 RMK AO2
KMVE 212155Z AUTO 10005KT 10SM SCT032 SCT041 27/18 A3007 RMK AO2
KMVE 212135Z AUTO 07005KT 10SM SCT034 28/18 A3008 RMK AO2
KMVE 212115Z AUTO 08006KT 10SM SCT034 28/19 A3007 RMK AO2
KMVE 212055Z AUTO 08006KT 10SM SCT035 28/19 A3007 RMK AO2
KMVE 212035Z AUTO 07005KT 10SM SCT039 27/17 A3007 RMK AO2
KMVE 212015Z AUTO 06004KT 10SM SCT028 SCT039 27/18 A3007 RMK AO2
KMVE 211955Z AUTO 06005KT 10SM SCT028 SCT035 26/18 A3008 RMK AO2